createdAt,value
2022-12-18T00:01:07.354Z,7.57
2022-12-18T00:06:02.391Z,6.95
2022-12-18T00:11:00.540Z,7.48
2022-12-18T00:15:54.426Z,7.41
2022-12-18T00:20:49.935Z,7.17
2022-12-18T00:25:45.640Z,7.04
2022-12-18T00:30:38.869Z,7.18
2022-12-18T00:35:32.027Z,6.85
2022-12-18T00:40:25.353Z,6.82
2022-12-18T00:45:22.329Z,7.09
2022-12-18T00:50:15.617Z,7.06
2022-12-18T00:55:09.686Z,7.03
2022-12-18T01:00:02.971Z,6.56
2022-12-18T01:04:57.776Z,6.95
2022-12-18T01:09:51.033Z,6.95
2022-12-18T01:14:44.292Z,6.91
2022-12-18T01:19:40.119Z,6.61
2022-12-18T01:24:38.489Z,5.90
2022-12-18T01:29:31.979Z,6.73
2022-12-18T01:34:25.287Z,6.39
2022-12-18T01:39:18.530Z,6.56
2022-12-18T01:44:45.127Z,6.67
2022-12-18T01:49:39.882Z,6.93
2022-12-18T01:54:33.218Z,6.64
2022-12-18T01:59:26.788Z,6.92
2022-12-18T02:04:23.761Z,6.79
2022-12-18T02:09:23.635Z,6.56
2022-12-18T02:14:25.872Z,6.78
2022-12-18T02:19:45.413Z,6.78
2022-12-18T02:24:49.546Z,6.44
2022-12-18T02:29:54.342Z,6.66
2022-12-18T02:34:54.874Z,6.59
2022-12-18T02:39:51.493Z,6.72
2022-12-18T02:44:47.877Z,5.69
2022-12-18T02:49:56.064Z,6.58
2022-12-18T02:55:02.345Z,6.24
2022-12-18T03:00:03.766Z,6.31
2022-12-18T03:05:00.365Z,6.37
2022-12-18T03:09:56.717Z,5.75
2022-12-18T03:14:53.121Z,6.10
2022-12-18T03:19:50.483Z,6.03
2022-12-18T03:24:44.551Z,5.72
2022-12-18T03:29:41.350Z,5.83
2022-12-18T03:34:39.269Z,5.44
2022-12-18T03:39:37.541Z,5.72
2022-12-18T03:44:36.708Z,5.57
2022-12-18T03:49:36.750Z,5.73
2022-12-18T03:54:33.574Z,4.55
2022-12-18T03:59:37.584Z,5.37
2022-12-18T04:04:33.349Z,5.29
2022-12-18T04:09:30.655Z,3.87
2022-12-18T04:14:24.848Z,5.42
2022-12-18T04:19:23.331Z,5.45
2022-12-18T04:24:19.219Z,5.38
2022-12-18T04:29:21.883Z,5.02
2022-12-18T04:34:17.082Z,5.17
2022-12-18T04:39:20.446Z,5.04
2022-12-18T04:44:16.362Z,5.24
2022-12-18T04:49:11.530Z,5.23
2022-12-18T04:54:04.887Z,5.24
2022-12-18T04:58:59.513Z,5.19
2022-12-18T05:03:53.616Z,4.47
2022-12-18T05:08:46.798Z,5.12
2022-12-18T05:13:40.990Z,4.94
2022-12-18T05:18:36.178Z,4.40
2022-12-18T05:23:32.480Z,4.74
2022-12-18T05:28:27.017Z,4.89
2022-12-18T05:33:20.982Z,4.77
2022-12-18T05:38:15.682Z,4.83
2022-12-18T05:43:08.851Z,4.95
2022-12-18T05:48:02.157Z,4.95
2022-12-18T05:52:55.334Z,3.61
2022-12-18T05:57:50.385Z,4.49
2022-12-18T06:02:43.741Z,4.47
2022-12-18T06:07:36.984Z,4.83
2022-12-18T06:12:30.238Z,4.66
2022-12-18T06:17:24.851Z,4.81
2022-12-18T06:22:17.971Z,4.76
2022-12-18T06:27:11.098Z,4.78
2022-12-18T06:32:04.340Z,4.79
2022-12-18T06:36:58.915Z,4.84
2022-12-18T06:41:52.026Z,4.85
2022-12-18T06:46:45.210Z,4.87
2022-12-18T06:51:38.487Z,4.50
2022-12-18T06:56:33.123Z,4.61
2022-12-18T07:01:26.385Z,4.92
2022-12-18T07:06:22.807Z,4.96
2022-12-18T07:11:16.498Z,4.72
2022-12-18T07:16:19.650Z,4.73
2022-12-18T07:21:20.202Z,5.11
2022-12-18T07:26:16.252Z,5.17
2022-12-18T07:31:12.437Z,4.95
2022-12-18T07:36:10.175Z,4.95
2022-12-18T07:41:04.064Z,5.35
2022-12-18T07:46:01.606Z,5.14
2022-12-18T07:51:00.020Z,5.38
2022-12-18T07:56:25.485Z,5.68
2022-12-18T08:01:12.617Z,5.73
2022-12-18T08:06:11.764Z,5.96
2022-12-18T08:11:06.976Z,5.99
2022-12-18T08:16:04.223Z,6.30
2022-12-18T08:20:58.179Z,6.14
2022-12-18T08:25:53.500Z,6.24
2022-12-18T08:30:47.252Z,6.49
2022-12-18T08:35:45.614Z,6.63
2022-12-18T08:40:39.631Z,6.69
2022-12-18T08:45:34.310Z,6.73
2022-12-18T08:50:27.685Z,6.74
2022-12-18T08:55:21.247Z,6.82
2022-12-18T09:00:16.811Z,6.90
2022-12-18T09:05:12.060Z,6.87
2022-12-18T09:10:06.256Z,6.69
2022-12-18T09:14:59.490Z,6.87
2022-12-18T09:19:53.279Z,6.81
2022-12-18T09:24:48.234Z,6.23
2022-12-18T09:29:41.473Z,6.37
2022-12-18T09:34:35.015Z,6.72
2022-12-18T09:39:28.203Z,6.75
2022-12-18T09:44:27.680Z,6.83
2022-12-18T09:49:24.653Z,6.89
2022-12-18T09:54:28.329Z,6.95
2022-12-18T09:59:28.820Z,6.59
2022-12-18T10:04:22.182Z,6.88
2022-12-18T10:09:23.737Z,7.06
2022-12-18T10:14:29.295Z,6.86
2022-12-18T10:19:50.510Z,7.08
2022-12-18T10:24:52.615Z,6.87
2022-12-18T10:29:48.455Z,7.01
2022-12-18T10:34:41.921Z,7.01
2022-12-18T10:39:35.517Z,6.77
2022-12-18T10:44:29.152Z,6.94
2022-12-18T10:49:28.164Z,6.85
2022-12-18T10:54:24.864Z,5.93
2022-12-18T10:59:19.858Z,6.42
2022-12-18T11:04:37.481Z,6.73
2022-12-18T11:09:32.998Z,6.74
2022-12-18T11:14:28.587Z,6.07
2022-12-18T11:19:32.386Z,6.75
2022-12-18T11:24:32.179Z,6.71
2022-12-18T11:29:35.127Z,6.52
2022-12-18T11:34:31.491Z,6.46
2022-12-18T11:39:34.313Z,6.75
2022-12-18T11:44:33.780Z,6.77
2022-12-18T11:49:31.304Z,6.71
2022-12-18T11:54:24.644Z,6.42
2022-12-18T11:59:29.558Z,5.98
2022-12-18T12:04:47.329Z,6.77
2022-12-18T12:09:48.786Z,6.11
2022-12-18T12:14:55.222Z,6.57
2022-12-18T12:20:00.305Z,6.95
2022-12-18T12:25:05.973Z,7.01
2022-12-18T12:30:08.444Z,6.80
2022-12-18T12:35:19.144Z,6.88
2022-12-18T12:40:49.761Z,6.66
2022-12-18T12:45:41.257Z,6.66
2022-12-18T12:50:37.749Z,6.87
2022-12-18T12:55:32.115Z,6.67
2022-12-18T13:00:26.892Z,6.67
2022-12-18T13:05:28.318Z,6.56
2022-12-18T13:10:28.830Z,6.52
2022-12-18T13:15:25.057Z,6.50
2022-12-18T13:20:20.472Z,6.64
2022-12-18T13:25:33.702Z,6.32
2022-12-18T13:31:00.097Z,6.50
2022-12-18T13:36:03.249Z,6.46
2022-12-18T13:41:00.320Z,6.33
2022-12-18T13:46:03.900Z,6.31
2022-12-18T13:51:24.175Z,5.93
2022-12-18T13:56:36.395Z,5.09
2022-12-18T14:02:05.599Z,5.30
2022-12-18T14:07:13.657Z,6.13
2022-12-18T14:12:45.925Z,4.92
2022-12-18T14:17:45.050Z,5.15
2022-12-18T14:22:52.447Z,5.29
2022-12-18T14:28:00.698Z,5.29
2022-12-18T14:33:02.810Z,5.33
2022-12-18T14:37:56.180Z,6.53
2022-12-18T14:42:51.243Z,5.80
2022-12-18T14:47:46.201Z,6.19
2022-12-18T15:12:29.729Z,6.45
2022-12-18T15:25:45.817Z,6.04
2022-12-18T15:37:49.001Z,6.23
2022-12-18T15:43:32.864Z,5.22
2022-12-18T15:48:45.392Z,5.99
2022-12-18T15:53:53.885Z,5.88
2022-12-18T15:59:21.847Z,5.58
2022-12-18T16:04:24.919Z,5.22
2022-12-18T16:21:48.704Z,6.46
2022-12-18T16:27:48.644Z,6.00
2022-12-18T16:34:10.237Z,4.83
2022-12-18T16:46:00.200Z,5.54
2022-12-18T16:51:24.110Z,5.55
2022-12-18T16:58:07.616Z,4.57
2022-12-18T17:08:39.981Z,5.99
2022-12-18T17:14:16.054Z,6.14
2022-12-18T17:19:17.705Z,5.19
2022-12-18T17:24:11.354Z,5.63
2022-12-18T17:29:09.182Z,5.20
2022-12-18T17:34:33.362Z,4.52
2022-12-18T17:40:19.832Z,4.60
2022-12-18T17:46:10.502Z,4.27
2022-12-18T17:51:17.574Z,5.93
2022-12-18T17:56:25.903Z,4.52
2022-12-18T18:01:50.764Z,5.55
2022-12-18T18:13:49.313Z,5.29
2022-12-18T18:18:48.754Z,4.02
2022-12-18T18:23:46.624Z,3.98
2022-12-18T18:29:05.083Z,5.01
2022-12-18T18:34:03.008Z,4.37
2022-12-18T18:39:06.523Z,4.81
2022-12-18T18:44:12.839Z,4.08
2022-12-18T18:49:09.946Z,5.35
2022-12-18T18:54:10.358Z,3.94
2022-12-18T18:59:05.120Z,4.49
2022-12-18T19:04:29.071Z,4.79
2022-12-18T19:09:30.364Z,3.78
2022-12-18T19:14:45.704Z,3.84
2022-12-18T19:27:37.787Z,3.39
2022-12-18T19:39:12.753Z,3.45
2022-12-18T19:45:37.067Z,5.14
2022-12-18T19:50:32.409Z,4.59
2022-12-18T19:56:11.217Z,4.47
2022-12-18T20:01:48.900Z,3.40
2022-12-18T20:07:29.635Z,4.82
2022-12-18T20:13:11.034Z,3.46
2022-12-18T20:18:31.185Z,3.28
2022-12-18T20:23:30.008Z,3.59
2022-12-18T20:28:57.147Z,4.68
2022-12-18T20:34:06.146Z,3.43
2022-12-18T20:39:18.104Z,3.31
2022-12-18T20:44:36.032Z,4.24
2022-12-18T20:49:57.298Z,3.97
2022-12-18T21:01:17.109Z,3.91
2022-12-18T21:11:52.236Z,4.37
2022-12-18T21:16:51.328Z,3.99
2022-12-18T21:21:47.678Z,2.92
2022-12-18T21:32:29.884Z,3.16
2022-12-18T21:37:36.362Z,3.24
2022-12-18T21:42:50.796Z,3.10
2022-12-18T21:48:14.693Z,3.32
2022-12-18T21:53:09.626Z,3.48
2022-12-18T21:58:09.568Z,4.25
2022-12-18T22:03:17.471Z,3.23
2022-12-18T22:08:13.818Z,2.95
2022-12-18T22:13:17.016Z,4.61
2022-12-18T22:18:23.094Z,3.85
2022-12-18T22:23:29.190Z,3.33
2022-12-18T22:28:43.975Z,3.35
2022-12-18T22:33:46.777Z,3.22
2022-12-18T22:38:50.889Z,2.86
2022-12-18T22:44:31.882Z,4.49
2022-12-18T22:49:34.877Z,3.91
2022-12-18T22:55:02.281Z,3.27
2022-12-18T23:05:52.403Z,2.82
2022-12-18T23:10:56.185Z,2.84
2022-12-18T23:15:49.881Z,2.65
2022-12-18T23:20:47.951Z,2.64
2022-12-18T23:25:46.718Z,3.06
2022-12-18T23:30:42.977Z,4.03
2022-12-18T23:35:45.570Z,2.49
2022-12-18T23:40:39.007Z,3.55
2022-12-18T23:45:52.514Z,3.53
2022-12-18T23:50:49.233Z,3.08
2022-12-18T23:55:45.097Z,3.26
